Time;durP1;ratioP1;P1;durP2;ratioP2;P2;SDS_P1;SDS_P2;PMS_P1;PMS_P2;Temp;Humidity;BMP_temperature;BMP_pressure;BME280_temperature;BME280_humidity;BME280_pressure;Samples;Min_cycle;Max_cycle;Signal;HPM_P1;HPM_P2
2023/05/02 00:02:11;;;;;;;8.57;2.93;;;;;;;;;;5072544;28;20201;-87
2023/05/02 00:04:40;;;;;;;3.67;3.43;;;;;;;;;;5071881;28;20222;-87
2023/05/02 00:07:10;;;;;;;2.13;1.90;;;;;;;;;;5071886;28;20224;-87
2023/05/02 00:09:39;;;;;;;5.77;2.33;;;;;;;;;;5072264;28;20212;-87
2023/05/02 00:12:07;;;;;;;2.77;2.27;;;;;;;;;;5072470;28;20275;-87
2023/05/02 00:14:35;;;;;;;5.30;2.73;;;;;;;;;;5071903;28;20297;-88
2023/05/02 00:17:04;;;;;;;8.63;4.30;;;;;;;;;;5072295;28;20193;-87
2023/05/02 00:19:32;;;;;;;1.37;1.37;;;;;;;;;;5071825;28;20198;-88
2023/05/02 00:22:01;;;;;;;4.33;2.97;;;;;;;;;;5071735;28;20217;-87
2023/05/02 00:24:31;;;;;;;2.27;2.07;;;;;;;;;;5072049;28;20229;-87
2023/05/02 00:27:00;;;;;;;5.67;2.17;;;;;;;;;;5071375;28;20237;-87
2023/05/02 00:29:29;;;;;;;2.40;2.20;;;;;;;;;;5070976;28;20205;-87
2023/05/02 00:31:58;;;;;;;3.70;2.70;;;;;;;;;;5071659;28;20198;-87
2023/05/02 00:34:30;;;;;;;2.87;1.93;;;;;;;;;;5071969;28;20254;-87
2023/05/02 00:37:01;;;;;;;2.50;1.57;;;;;;;;;;5071500;28;20194;-88
2023/05/02 00:39:31;;;;;;;3.60;2.80;;;;;;;;;;5071593;28;20209;-87
2023/05/02 00:42:00;;;;;;;3.27;2.00;;;;;;;;;;5071965;28;20209;-87
2023/05/02 00:44:29;;;;;;;3.30;1.77;;;;;;;;;;5071612;28;20292;-88
2023/05/02 00:46:58;;;;;;;1.73;1.63;;;;;;;;;;5071436;28;20240;-87
2023/05/02 00:49:26;;;;;;;1.97;1.60;;;;;;;;;;5071602;28;20238;-87
2023/05/02 00:51:55;;;;;;;4.33;1.50;;;;;;;;;;5071465;28;20213;-87
2023/05/02 00:54:23;;;;;;;1.33;1.20;;;;;;;;;;5071199;28;20265;-87
2023/05/02 00:56:53;;;;;;;1.50;1.40;;;;;;;;;;5071558;28;20224;-88
2023/05/02 00:59:21;;;;;;;0.97;0.97;;;;;;;;;;5071761;28;20293;-87
2023/05/02 01:01:54;;;;;;;3.20;1.80;;;;;;;;;;5071122;28;20227;-87
2023/05/02 01:04:28;;;;;;;1.00;1.00;;;;;;;;;;5071265;28;20283;-87
2023/05/02 01:07:03;;;;;;;3.27;2.97;;;;;;;;;;5071094;28;20193;-87
2023/05/02 01:09:35;;;;;;;1.30;1.30;;;;;;;;;;5070924;28;20196;-87
2023/05/02 01:12:06;;;;;;;1.00;1.00;;;;;;;;;;5071017;28;20192;-87
2023/05/02 01:14:36;;;;;;;2.83;1.43;;;;;;;;;;5071230;28;20304;-87
2023/05/02 01:17:06;;;;;;;1.63;1.53;;;;;;;;;;5071529;28;20205;-88
2023/05/02 01:19:37;;;;;;;1.70;1.60;;;;;;;;;;5071606;28;20255;-87
2023/05/02 01:22:06;;;;;;;1.53;1.43;;;;;;;;;;5071764;28;20216;-87
2023/05/02 01:24:39;;;;;;;5.50;1.90;;;;;;;;;;5070909;28;20233;-87
2023/05/02 01:27:14;;;;;;;2.87;1.23;;;;;;;;;;5071037;28;20289;-87
2023/05/02 01:29:46;;;;;;;2.63;1.93;;;;;;;;;;5071201;28;20196;-87
2023/05/02 01:32:15;;;;;;;1.73;1.63;;;;;;;;;;5071008;28;20200;-87
2023/05/02 01:34:45;;;;;;;5.03;2.07;;;;;;;;;;5071014;28;20240;-87
2023/05/02 01:37:14;;;;;;;5.20;1.67;;;;;;;;;;5071185;28;20198;-87
2023/05/02 01:39:43;;;;;;;2.53;1.37;;;;;;;;;;5070866;28;20244;-87
2023/05/02 01:42:12;;;;;;;1.33;1.23;;;;;;;;;;5074903;28;20261;-87
2023/05/02 01:44:41;;;;;;;1.80;1.70;;;;;;;;;;5075106;28;20201;-87
2023/05/02 01:47:11;;;;;;;1.43;1.27;;;;;;;;;;5074544;28;20190;-87
2023/05/02 01:49:41;;;;;;;4.50;1.97;;;;;;;;;;5074660;28;20222;-87
2023/05/02 01:52:12;;;;;;;7.53;1.47;;;;;;;;;;5074757;28;20186;-87
2023/05/02 01:54:41;;;;;;;3.03;2.83;;;;;;;;;;5074831;28;20200;-87
2023/05/02 01:57:11;;;;;;;2.40;1.67;;;;;;;;;;5074528;28;20197;-87
2023/05/02 01:59:41;;;;;;;2.90;1.40;;;;;;;;;;5075113;28;20281;-88
2023/05/02 02:02:12;;;;;;;3.07;2.77;;;;;;;;;;5074744;28;20304;-87
2023/05/02 02:04:41;;;;;;;2.90;1.93;;;;;;;;;;5073946;28;20283;-87
2023/05/02 02:07:11;;;;;;;3.97;2.10;;;;;;;;;;5074746;28;20197;-87
2023/05/02 02:09:39;;;;;;;3.10;2.07;;;;;;;;;;5074351;28;20228;-88
2023/05/02 02:12:12;;;;;;;3.77;1.77;;;;;;;;;;5074414;28;20291;-88
2023/05/02 02:14:42;;;;;;;1.83;1.67;;;;;;;;;;5074706;28;20212;-87
2023/05/02 02:17:14;;;;;;;1.80;1.07;;;;;;;;;;5074061;28;20228;-87
2023/05/02 02:19:43;;;;;;;1.60;1.43;;;;;;;;;;5073959;28;20197;-87
2023/05/02 02:22:14;;;;;;;3.30;1.47;;;;;;;;;;5074321;28;20196;-87
2023/05/02 02:24:44;;;;;;;8.00;2.57;;;;;;;;;;5074489;28;20201;-87
2023/05/02 02:27:12;;;;;;;2.20;1.43;;;;;;;;;;5073735;28;20243;-87
2023/05/02 02:29:41;;;;;;;2.00;1.87;;;;;;;;;;5074011;28;20230;-87
2023/05/02 02:32:09;;;;;;;0.93;0.93;;;;;;;;;;5074332;28;20205;-87
2023/05/02 02:34:39;;;;;;;5.70;1.17;;;;;;;;;;5073773;28;20246;-87
2023/05/02 02:37:09;;;;;;;1.63;1.57;;;;;;;;;;5073717;28;20295;-87
2023/05/02 02:39:42;;;;;;;3.43;1.47;;;;;;;;;;5073695;28;20206;-87
2023/05/02 02:42:13;;;;;;;1.43;1.33;;;;;;;;;;5073652;28;20196;-87
2023/05/02 02:44:48;;;;;;;3.27;1.40;;;;;;;;;;5073783;28;20295;-87
2023/05/02 02:47:20;;;;;;;6.50;6.10;;;;;;;;;;5073610;28;20273;-87
2023/05/02 02:49:52;;;;;;;1.60;1.50;;;;;;;;;;5073527;28;20217;-87
2023/05/02 02:52:25;;;;;;;9.43;2.17;;;;;;;;;;5072761;28;20239;-87
2023/05/02 02:54:58;;;;;;;2.03;1.63;;;;;;;;;;5073531;28;20208;-87
2023/05/02 02:57:29;;;;;;;5.23;1.70;;;;;;;;;;5073370;28;20203;-87
2023/05/02 03:00:00;;;;;;;2.47;1.40;;;;;;;;;;5073190;28;20186;-87
2023/05/02 03:02:31;;;;;;;1.43;1.27;;;;;;;;;;5073599;28;20198;-87
2023/05/02 03:05:03;;;;;;;6.63;2.07;;;;;;;;;;5073482;28;20286;-87
2023/05/02 03:07:32;;;;;;;4.53;2.23;;;;;;;;;;5073068;28;20204;-87
2023/05/02 03:10:03;;;;;;;2.30;1.67;;;;;;;;;;5073405;28;20209;-87
2023/05/02 03:12:31;;;;;;;4.13;1.90;;;;;;;;;;5073281;28;20209;-87
2023/05/02 03:15:04;;;;;;;1.20;1.20;;;;;;;;;;5072872;28;20204;-87
2023/05/02 03:17:32;;;;;;;2.77;1.37;;;;;;;;;;5072769;28;20308;-87
2023/05/02 03:20:04;;;;;;;2.13;1.47;;;;;;;;;;5073426;28;20255;-87
2023/05/02 03:22:33;;;;;;;3.30;1.90;;;;;;;;;;5072543;28;20211;-87
2023/05/02 03:25:01;;;;;;;1.27;1.27;;;;;;;;;;5073194;28;20208;-88
2023/05/02 03:27:30;;;;;;;4.60;1.67;;;;;;;;;;5072913;28;20251;-88
2023/05/02 03:29:59;;;;;;;2.50;2.20;;;;;;;;;;5072705;28;20314;-88
2023/05/02 03:32:28;;;;;;;4.27;2.23;;;;;;;;;;5073210;28;20224;-87
2023/05/02 03:34:57;;;;;;;2.43;1.90;;;;;;;;;;5072948;28;20200;-88
2023/05/02 03:37:27;;;;;;;4.60;2.47;;;;;;;;;;5072640;28;20205;-87
2023/05/02 03:39:55;;;;;;;9.20;3.00;;;;;;;;;;5072840;28;20222;-88
2023/05/02 03:42:24;;;;;;;2.67;2.43;;;;;;;;;;5072543;28;20232;-88
2023/05/02 03:44:53;;;;;;;4.03;3.10;;;;;;;;;;5072727;28;20216;-87
2023/05/02 03:47:21;;;;;;;10.77;2.93;;;;;;;;;;5072428;28;20238;-88
2023/05/02 03:49:51;;;;;;;5.07;2.60;;;;;;;;;;5072514;28;20213;-88
2023/05/02 03:52:20;;;;;;;3.07;2.30;;;;;;;;;;5072518;28;20209;-88
2023/05/02 03:54:50;;;;;;;4.10;2.57;;;;;;;;;;5072309;28;20214;-88
2023/05/02 03:57:20;;;;;;;4.27;2.80;;;;;;;;;;5072240;28;20208;-87
2023/05/02 03:59:48;;;;;;;1.90;1.80;;;;;;;;;;5072415;28;20204;-87
2023/05/02 04:02:16;;;;;;;8.03;3.23;;;;;;;;;;5072286;28;20228;-87
2023/05/02 04:04:45;;;;;;;2.07;1.87;;;;;;;;;;5071337;28;20329;-87
2023/05/02 04:07:18;;;;;;;3.13;2.53;;;;;;;;;;5072393;28;20204;-87
2023/05/02 04:09:46;;;;;;;11.07;4.20;;;;;;;;;;5071845;28;20226;-87
2023/05/02 04:12:17;;;;;;;3.97;3.00;;;;;;;;;;5072021;28;20234;-87
2023/05/02 04:14:45;;;;;;;6.20;2.50;;;;;;;;;;5071975;28;20234;-87
2023/05/02 04:17:14;;;;;;;12.03;2.80;;;;;;;;;;5071553;28;20203;-87
2023/05/02 04:19:43;;;;;;;5.53;2.47;;;;;;;;;;5072274;28;20239;-87
2023/05/02 04:22:12;;;;;;;2.67;1.70;;;;;;;;;;5072068;28;20245;-87
2023/05/02 04:24:40;;;;;;;5.63;1.87;;;;;;;;;;5071683;28;20196;-87
2023/05/02 04:27:08;;;;;;;3.80;2.30;;;;;;;;;;5071726;28;20231;-87
2023/05/02 04:29:39;;;;;;;2.50;2.37;;;;;;;;;;5072305;28;20220;-87
2023/05/02 04:32:07;;;;;;;3.97;1.60;;;;;;;;;;5071733;28;20292;-87
2023/05/02 04:34:36;;;;;;;2.77;2.13;;;;;;;;;;5071855;28;20208;-87
2023/05/02 04:37:05;;;;;;;1.50;1.30;;;;;;;;;;5071791;28;20304;-87
2023/05/02 04:39:33;;;;;;;3.70;2.37;;;;;;;;;;5071824;28;20200;-87
2023/05/02 04:42:02;;;;;;;1.50;1.40;;;;;;;;;;5071420;28;20208;-87
2023/05/02 04:44:30;;;;;;;9.67;2.70;;;;;;;;;;5071444;28;20193;-87
2023/05/02 04:47:00;;;;;;;6.50;2.70;;;;;;;;;;5071844;28;20216;-86
2023/05/02 04:49:28;;;;;;;5.60;2.30;;;;;;;;;;5071117;28;20215;-87
2023/05/02 04:51:57;;;;;;;13.97;2.23;;;;;;;;;;5071381;28;20228;-87
2023/05/02 04:54:28;;;;;;;2.40;1.70;;;;;;;;;;5071668;28;20204;-88
2023/05/02 04:56:56;;;;;;;3.10;2.13;;;;;;;;;;5071496;28;20200;-88
2023/05/02 04:59:25;;;;;;;2.43;1.57;;;;;;;;;;5071636;28;20199;-88
2023/05/02 05:01:53;;;;;;;4.50;3.10;;;;;;;;;;5071509;28;20264;-88
2023/05/02 05:04:25;;;;;;;2.37;1.97;;;;;;;;;;5070806;28;20235;-88
2023/05/02 05:06:54;;;;;;;4.87;1.97;;;;;;;;;;5071378;28;20207;-88
2023/05/02 05:09:23;;;;;;;10.87;3.57;;;;;;;;;;5071337;28;20197;-88
2023/05/02 05:11:51;;;;;;;7.97;2.87;;;;;;;;;;5071073;28;20235;-87
2023/05/02 05:14:20;;;;;;;2.00;1.80;;;;;;;;;;5071184;28;20204;-87
2023/05/02 05:16:48;;;;;;;3.47;2.10;;;;;;;;;;5071112;28;20256;-86
2023/05/02 05:19:19;;;;;;;1.70;1.60;;;;;;;;;;5071006;28;20254;-88
2023/05/02 05:21:49;;;;;;;2.13;1.93;;;;;;;;;;5071207;28;20268;-88
2023/05/02 05:24:18;;;;;;;5.40;2.03;;;;;;;;;;5071009;28;20208;-88
2023/05/02 05:26:48;;;;;;;1.60;1.47;;;;;;;;;;5071316;28;20231;-88
2023/05/02 05:29:17;;;;;;;1.83;1.67;;;;;;;;;;5071850;28;20212;-88
2023/05/02 05:31:46;;;;;;;2.77;1.63;;;;;;;;;;5071603;28;20228;-89
2023/05/02 05:34:15;;;;;;;3.03;1.60;;;;;;;;;;5071253;28;20263;-89
2023/05/02 05:36:43;;;;;;;4.80;1.43;;;;;;;;;;5071766;28;20212;-89
2023/05/02 05:39:13;;;;;;;1.70;1.60;;;;;;;;;;5071422;28;20228;-89
2023/05/02 05:41:42;;;;;;;1.73;1.63;;;;;;;;;;5071285;28;20247;-89
2023/05/02 05:44:10;;;;;;;4.77;2.47;;;;;;;;;;5071414;28;20206;-88
2023/05/02 05:46:39;;;;;;;4.33;1.90;;;;;;;;;;5071042;28;20207;-88
2023/05/02 05:49:07;;;;;;;2.37;2.10;;;;;;;;;;5070889;28;20202;-87
2023/05/02 05:51:36;;;;;;;2.77;2.57;;;;;;;;;;5070750;28;20315;-88
2023/05/02 05:54:04;;;;;;;7.50;2.20;;;;;;;;;;5071215;28;20205;-88
2023/05/02 05:56:34;;;;;;;0.90;0.90;;;;;;;;;;5071103;28;20279;-88
2023/05/02 05:59:03;;;;;;;1.20;1.20;;;;;;;;;;5070977;28;20263;-85
2023/05/02 06:01:32;;;;;;;2.20;1.60;;;;;;;;;;5071428;28;20197;-85
2023/05/02 06:04:01;;;;;;;1.43;1.33;;;;;;;;;;5070709;28;20233;-88
2023/05/02 06:06:30;;;;;;;2.30;1.37;;;;;;;;;;5071137;28;20255;-89
2023/05/02 06:08:58;;;;;;;1.60;1.50;;;;;;;;;;5071179;28;20201;-88
2023/05/02 06:11:27;;;;;;;2.60;2.40;;;;;;;;;;5070863;28;20217;-88
2023/05/02 06:13:57;;;;;;;5.23;1.50;;;;;;;;;;5070829;28;20296;-88
2023/05/02 06:16:25;;;;;;;2.07;1.37;;;;;;;;;;5070973;28;20229;-87
2023/05/02 06:18:54;;;;;;;2.13;1.47;;;;;;;;;;5070633;28;20217;-89
2023/05/02 06:21:23;;;;;;;2.20;1.57;;;;;;;;;;5071334;28;20203;-89
2023/05/02 06:23:51;;;;;;;2.20;2.03;;;;;;;;;;5071086;28;20198;-89
2023/05/02 06:26:20;;;;;;;0.80;0.80;;;;;;;;;;5071097;28;20252;-88
2023/05/02 06:28:48;;;;;;;1.77;1.67;;;;;;;;;;5074361;28;20262;-89
2023/05/02 06:31:18;;;;;;;1.00;1.00;;;;;;;;;;5073704;28;20210;-88
2023/05/02 06:33:47;;;;;;;1.83;1.73;;;;;;;;;;5074339;28;20201;-86
2023/05/02 06:36:15;;;;;;;1.60;1.50;;;;;;;;;;5074376;28;20245;-85
2023/05/02 06:38:44;;;;;;;3.43;3.13;;;;;;;;;;5074279;28;20227;-86
2023/05/02 06:41:14;;;;;;;1.47;1.37;;;;;;;;;;5073971;28;20251;-86
2023/05/02 06:43:45;;;;;;;1.37;1.37;;;;;;;;;;5073763;28;20204;-86
2023/05/02 06:46:14;;;;;;;0.90;0.90;;;;;;;;;;5073440;28;20229;-85
2023/05/02 06:48:45;;;;;;;1.00;1.00;;;;;;;;;;5074112;28;20217;-86
2023/05/02 06:51:15;;;;;;;1.50;1.23;;;;;;;;;;5073564;28;20312;-83
2023/05/02 06:53:43;;;;;;;2.00;1.40;;;;;;;;;;5073716;28;20190;-85
2023/05/02 06:56:12;;;;;;;1.33;1.33;;;;;;;;;;5073920;28;20229;-86
2023/05/02 06:58:40;;;;;;;1.30;1.30;;;;;;;;;;5074106;28;20291;-86
2023/05/02 07:01:08;;;;;;;1.00;0.90;;;;;;;;;;5073466;28;20243;-86
2023/05/02 07:03:37;;;;;;;1.67;1.40;;;;;;;;;;5073765;28;20233;-85
2023/05/02 07:06:07;;;;;;;1.27;1.27;;;;;;;;;;5073502;28;20240;-85
2023/05/02 07:08:35;;;;;;;0.90;0.90;;;;;;;;;;5073827;28;20201;-86
2023/05/02 07:11:04;;;;;;;1.00;1.00;;;;;;;;;;5073291;28;20275;-86
2023/05/02 07:13:33;;;;;;;1.33;1.20;;;;;;;;;;5073756;28;20201;-87
2023/05/02 07:16:01;;;;;;;1.50;1.00;;;;;;;;;;5073457;28;20205;-86
2023/05/02 07:18:30;;;;;;;5.37;1.57;;;;;;;;;;5073252;28;20202;-86
2023/05/02 07:21:00;;;;;;;1.33;0.90;;;;;;;;;;5073442;28;20203;-86
2023/05/02 07:23:30;;;;;;;1.20;1.10;;;;;;;;;;5073294;28;20247;-86
2023/05/02 07:25:58;;;;;;;1.47;1.30;;;;;;;;;;5072819;28;20200;-85
2023/05/02 07:28:26;;;;;;;1.83;1.10;;;;;;;;;;5073270;28;20220;-86
2023/05/02 07:30:55;;;;;;;2.97;1.60;;;;;;;;;;5072903;28;20269;-86
2023/05/02 07:33:23;;;;;;;2.00;1.30;;;;;;;;;;5073281;28;20193;-86
2023/05/02 07:35:52;;;;;;;1.43;1.37;;;;;;;;;;5073289;28;20304;-86
2023/05/02 07:38:21;;;;;;;1.40;1.30;;;;;;;;;;5073267;28;20259;-86
2023/05/02 07:40:53;;;;;;;1.60;1.50;;;;;;;;;;5072984;28;20198;-86
2023/05/02 07:43:22;;;;;;;1.37;1.33;;;;;;;;;;5073023;28;20201;-86
2023/05/02 07:45:50;;;;;;;1.87;1.67;;;;;;;;;;5072599;28;20230;-86
2023/05/02 07:48:19;;;;;;;2.23;2.03;;;;;;;;;;5072579;28;20212;-86
2023/05/02 07:50:47;;;;;;;5.27;2.33;;;;;;;;;;5072259;28;20205;-86
2023/05/02 07:53:16;;;;;;;1.00;1.00;;;;;;;;;;5072714;28;20197;-86
2023/05/02 07:55:44;;;;;;;1.63;1.50;;;;;;;;;;5072488;28;20232;-86
2023/05/02 07:58:15;;;;;;;3.30;1.63;;;;;;;;;;5072195;28;20260;-86
2023/05/02 08:00:43;;;;;;;2.70;1.67;;;;;;;;;;5072266;28;20235;-85
2023/05/02 08:03:12;;;;;;;0.80;0.80;;;;;;;;;;5072335;28;20277;-85
2023/05/02 08:05:40;;;;;;;4.00;1.73;;;;;;;;;;5072239;28;20202;-86
2023/05/02 08:08:09;;;;;;;6.00;1.27;;;;;;;;;;5072156;28;20186;-86
2023/05/02 08:10:37;;;;;;;2.83;1.20;;;;;;;;;;5072312;28;20201;-85
2023/05/02 08:13:06;;;;;;;2.47;1.47;;;;;;;;;;5071552;28;20270;-85
2023/05/02 08:15:36;;;;;;;1.50;1.40;;;;;;;;;;5072458;28;20208;-85
2023/05/02 08:18:05;;;;;;;2.63;1.73;;;;;;;;;;5072023;28;20206;-85
2023/05/02 08:20:33;;;;;;;1.77;1.67;;;;;;;;;;5071784;28;20293;-85
2023/05/02 08:23:01;;;;;;;1.10;1.10;;;;;;;;;;5072397;28;20259;-85
2023/05/02 08:25:30;;;;;;;2.40;1.70;;;;;;;;;;5072077;28;20224;-85
2023/05/02 08:27:58;;;;;;;6.40;2.73;;;;;;;;;;5071799;28;20257;-85
2023/05/02 08:30:27;;;;;;;3.43;1.70;;;;;;;;;;5071960;28;20205;-85
2023/05/02 08:32:57;;;;;;;1.73;1.63;;;;;;;;;;5071958;28;20217;-85
2023/05/02 08:35:25;;;;;;;2.23;1.40;;;;;;;;;;5071344;28;20209;-85
2023/05/02 08:37:54;;;;;;;1.20;1.20;;;;;;;;;;5071732;28;20301;-85
2023/05/02 08:40:23;;;;;;;2.13;1.90;;;;;;;;;;5071696;28;20201;-83
2023/05/02 08:43:07;;;;;;;5.23;1.20;;;;;;;;;;5071683;28;20193;-84
2023/05/02 08:45:37;;;;;;;1.30;1.30;;;;;;;;;;5071708;28;20255;-85
2023/05/02 08:48:09;;;;;;;1.53;1.43;;;;;;;;;;5071929;28;20379;-85
2023/05/02 08:50:38;;;;;;;1.33;1.13;;;;;;;;;;5071103;28;20198;-85
2023/05/02 08:53:07;;;;;;;2.57;1.10;;;;;;;;;;5071719;28;20283;-85
2023/05/02 08:55:38;;;;;;;2.10;1.17;;;;;;;;;;5071915;28;20231;-85
2023/05/02 08:58:07;;;;;;;1.57;1.47;;;;;;;;;;5071118;28;20282;-84
2023/05/02 09:00:38;;;;;;;2.40;1.20;;;;;;;;;;5071416;28;20201;-85
2023/05/02 09:03:12;;;;;;;1.10;1.10;;;;;;;;;;5071337;28;20231;-84
2023/05/02 09:05:41;;;;;;;2.63;1.70;;;;;;;;;;5071578;28;20200;-85
2023/05/02 09:08:10;;;;;;;0.90;0.90;;;;;;;;;;5071157;28;20203;-85
2023/05/02 09:10:40;;;;;;;1.33;1.23;;;;;;;;;;5071636;28;20194;-85
2023/05/02 09:13:29;;;;;;;1.00;1.00;;;;;;;;;;5071417;28;20240;-85
2023/05/02 09:15:58;;;;;;;4.13;1.80;;;;;;;;;;5071225;28;20217;-84
2023/05/02 09:18:32;;;;;;;3.23;1.40;;;;;;;;;;5071345;28;20206;-85
2023/05/02 09:21:01;;;;;;;1.70;1.60;;;;;;;;;;5071969;28;20210;-85
2023/05/02 09:23:33;;;;;;;2.00;1.30;;;;;;;;;;5070986;28;20201;-85
2023/05/02 09:26:02;;;;;;;2.77;1.57;;;;;;;;;;5071360;28;20202;-85
2023/05/02 09:28:41;;;;;;;1.80;1.70;;;;;;;;;;5071267;28;20228;-85
2023/05/02 09:31:10;;;;;;;2.40;1.97;;;;;;;;;;5070617;28;20211;-85
2023/05/02 09:33:40;;;;;;;1.60;1.47;;;;;;;;;;5071168;28;20283;-84
2023/05/02 09:36:09;;;;;;;4.07;1.50;;;;;;;;;;5071528;28;20223;-84
2023/05/02 09:38:38;;;;;;;1.57;1.47;;;;;;;;;;5070774;28;20296;-85
2023/05/02 09:41:07;;;;;;;2.60;1.97;;;;;;;;;;5071398;28;20229;-84
2023/05/02 09:43:35;;;;;;;1.63;1.53;;;;;;;;;;5070818;28;20190;-85
2023/05/02 09:46:05;;;;;;;4.43;1.53;;;;;;;;;;5070821;28;20193;-85
2023/05/02 09:48:34;;;;;;;1.50;1.40;;;;;;;;;;5071200;28;20198;-84
2023/05/02 09:51:04;;;;;;;1.03;1.03;;;;;;;;;;5071035;28;20205;-85
2023/05/02 09:53:33;;;;;;;1.13;1.13;;;;;;;;;;5070655;28;20239;-85
2023/05/02 09:56:02;;;;;;;1.60;1.23;;;;;;;;;;5070964;28;20202;-85
2023/05/02 09:58:32;;;;;;;1.20;1.20;;;;;;;;;;5071304;28;20209;-85
2023/05/02 10:01:00;;;;;;;5.00;1.40;;;;;;;;;;5071251;28;20271;-85
2023/05/02 10:03:30;;;;;;;2.37;1.30;;;;;;;;;;5074447;28;20210;-84
2023/05/02 10:05:59;;;;;;;1.27;1.27;;;;;;;;;;5074590;28;20190;-84
2023/05/02 10:08:29;;;;;;;1.53;1.43;;;;;;;;;;5074742;28;20206;-84
2023/05/02 10:10:59;;;;;;;2.00;1.43;;;;;;;;;;5075052;28;20297;-84
2023/05/02 10:13:31;;;;;;;1.67;1.57;;;;;;;;;;5074437;28;20222;-84
2023/05/02 10:16:02;;;;;;;1.47;1.30;;;;;;;;;;5075103;28;20201;-84
2023/05/02 10:18:35;;;;;;;5.30;1.57;;;;;;;;;;5074728;28;20201;-85
2023/05/02 10:21:07;;;;;;;8.03;1.77;;;;;;;;;;5075166;28;20221;-85
2023/05/02 10:23:39;;;;;;;1.67;1.57;;;;;;;;;;5074382;28;20229;-85
2023/05/02 10:26:07;;;;;;;3.70;2.07;;;;;;;;;;5074206;28;20273;-85
2023/05/02 10:28:36;;;;;;;1.90;1.37;;;;;;;;;;5074885;28;20241;-84
2023/05/02 10:31:06;;;;;;;4.20;1.47;;;;;;;;;;5073986;28;20293;-84
2023/05/02 10:33:34;;;;;;;5.13;1.77;;;;;;;;;;5073642;28;20218;-84
2023/05/02 10:36:03;;;;;;;2.93;1.57;;;;;;;;;;5074047;28;20252;-84
2023/05/02 10:38:32;;;;;;;2.07;1.90;;;;;;;;;;5074000;28;20202;-84
2023/05/02 10:41:02;;;;;;;2.13;1.70;;;;;;;;;;5073901;28;20216;-84
2023/05/02 10:43:33;;;;;;;1.00;1.00;;;;;;;;;;5074422;28;20213;-84
2023/05/02 10:46:02;;;;;;;28.80;2.20;;;;;;;;;;5074069;28;20221;-85
2023/05/02 10:48:31;;;;;;;2.20;1.63;;;;;;;;;;5073364;28;20199;-84
2023/05/02 10:51:00;;;;;;;1.97;1.77;;;;;;;;;;5074144;28;20226;-83
2023/05/02 10:53:30;;;;;;;4.73;2.43;;;;;;;;;;5073661;28;20229;-83
2023/05/02 10:56:16;;;;;;;11.23;1.70;;;;;;;;;;5073777;28;20254;-83
2023/05/02 10:58:47;;;;;;;1.87;1.77;;;;;;;;;;5073643;28;20266;-83
2023/05/02 11:01:36;;;;;;;3.47;2.43;;;;;;;;;;5073972;28;20206;-84
2023/05/02 11:04:06;;;;;;;1.93;1.83;;;;;;;;;;5073005;28;20304;-83
2023/05/02 11:06:35;;;;;;;0.83;0.83;;;;;;;;;;5073263;28;20280;-83
2023/05/02 11:09:22;;;;;;;5.40;1.93;;;;;;;;;;5073741;28;20203;-83
2023/05/02 11:11:51;;;;;;;1.20;1.20;;;;;;;;;;5073266;28;20225;-84
2023/05/02 11:14:34;;;;;;;1.23;1.13;;;;;;;;;;5073073;28;20231;-83
2023/05/02 11:17:11;;;;;;;1.03;1.03;;;;;;;;;;5053114;28;20202;-84
2023/05/02 11:19:58;;;;;;;1.70;0.97;;;;;;;;;;5073325;28;20206;-84
2023/05/02 11:22:32;;;;;;;0.90;0.90;;;;;;;;;;5073213;28;20215;-84
2023/05/02 11:25:00;;;;;;;5.17;2.07;;;;;;;;;;5073951;28;20212;-84
2023/05/02 11:27:38;;;;;;;38.50;3.60;;;;;;;;;;5073109;28;20254;-83
2023/05/02 11:30:08;;;;;;;0.80;0.80;;;;;;;;;;5074162;28;20203;-83
2023/05/02 11:32:57;;;;;;;2.80;1.60;;;;;;;;;;5073709;28;20200;-83
2023/05/02 11:35:30;;;;;;;6.43;2.97;;;;;;;;;;5072789;28;20205;-83
2023/05/02 11:37:59;;;;;;;1.20;1.20;;;;;;;;;;5073096;28;20203;-83
2023/05/02 11:40:28;;;;;;;3.93;2.00;;;;;;;;;;5072842;28;20191;-83
2023/05/02 11:42:57;;;;;;;6.27;2.00;;;;;;;;;;5072560;28;20281;-83
2023/05/02 11:45:33;;;;;;;4.50;2.07;;;;;;;;;;5072922;28;20212;-84
2023/05/02 11:48:02;;;;;;;1.93;1.73;;;;;;;;;;5073566;28;20198;-83
2023/05/02 11:50:32;;;;;;;4.47;2.23;;;;;;;;;;5072395;28;20294;-84
2023/05/02 11:53:01;;;;;;;4.50;2.60;;;;;;;;;;5072518;28;20202;-83
2023/05/02 11:55:29;;;;;;;1.03;1.03;;;;;;;;;;5072692;28;20238;-84
2023/05/02 11:57:58;;;;;;;2.90;1.67;;;;;;;;;;5072426;28;20245;-84
2023/05/02 12:00:27;;;;;;;2.00;1.80;;;;;;;;;;5071606;28;20203;-84
2023/05/02 12:02:56;;;;;;;3.03;1.70;;;;;;;;;;5072324;28;20320;-84
2023/05/02 12:05:28;;;;;;;4.30;2.53;;;;;;;;;;5072320;28;20242;-84
2023/05/02 12:08:00;;;;;;;3.70;2.33;;;;;;;;;;5071930;28;20259;-84
2023/05/02 12:10:36;;;;;;;3.80;1.80;;;;;;;;;;5072286;28;20202;-84
2023/05/02 12:13:05;;;;;;;9.20;1.70;;;;;;;;;;5072255;28;20206;-83
2023/05/02 12:15:33;;;;;;;4.33;2.40;;;;;;;;;;5071916;28;20199;-84
2023/05/02 12:18:02;;;;;;;4.90;2.27;;;;;;;;;;5071834;28;20220;-84
2023/05/02 12:20:31;;;;;;;2.40;2.20;;;;;;;;;;5072330;28;20289;-84
2023/05/02 12:23:01;;;;;;;3.63;2.10;;;;;;;;;;5071940;28;20213;-84
2023/05/02 12:25:32;;;;;;;2.10;1.40;;;;;;;;;;5071388;28;20249;-83
2023/05/02 12:28:01;;;;;;;5.80;2.20;;;;;;;;;;5071802;28;20290;-84
2023/05/02 12:30:30;;;;;;;5.57;1.50;;;;;;;;;;5071377;28;20200;-83
2023/05/02 12:33:00;;;;;;;4.10;2.30;;;;;;;;;;5071908;28;20265;-84
2023/05/02 12:35:29;;;;;;;2.00;1.67;;;;;;;;;;5071975;28;20245;-84
2023/05/02 12:38:10;;;;;;;4.53;1.53;;;;;;;;;;5071538;28;20212;-83
2023/05/02 12:40:39;;;;;;;2.40;1.17;;;;;;;;;;5071794;28;20199;-84
2023/05/02 12:43:09;;;;;;;5.30;1.90;;;;;;;;;;5071948;28;20210;-84
2023/05/02 12:45:38;;;;;;;1.80;1.33;;;;;;;;;;5072741;28;20332;-84
2023/05/02 12:48:21;;;;;;;2.87;1.53;;;;;;;;;;5071367;28;20191;-84
2023/05/02 12:50:50;;;;;;;5.07;2.33;;;;;;;;;;5069091;28;20221;-84
2023/05/02 12:53:38;;;;;;;3.13;1.40;;;;;;;;;;5071662;28;20302;-84
2023/05/02 12:56:07;;;;;;;0.70;0.70;;;;;;;;;;5071803;28;20236;-82
2023/05/02 12:58:42;;;;;;;3.97;1.70;;;;;;;;;;5071899;28;20233;-84
2023/05/02 13:01:13;;;;;;;2.33;1.27;;;;;;;;;;5071547;28;20201;-84
2023/05/02 13:03:42;;;;;;;1.93;1.67;;;;;;;;;;5071047;28;20253;-83
2023/05/02 13:06:11;;;;;;;8.20;1.57;;;;;;;;;;5071290;28;20206;-84
2023/05/02 13:08:41;;;;;;;1.60;1.50;;;;;;;;;;5070945;28;20243;-84
2023/05/02 13:11:09;;;;;;;1.90;1.80;;;;;;;;;;5071454;28;20237;-85
2023/05/02 13:13:38;;;;;;;3.57;1.23;;;;;;;;;;5071394;28;20272;-84
2023/05/02 13:16:09;;;;;;;4.03;1.90;;;;;;;;;;5071237;28;20226;-84
2023/05/02 13:18:38;;;;;;;2.03;1.80;;;;;;;;;;5071308;28;20207;-84
2023/05/02 13:21:06;;;;;;;0.90;0.90;;;;;;;;;;5071331;28;20196;-85
2023/05/02 13:23:35;;;;;;;1.70;1.60;;;;;;;;;;5071419;28;20210;-85
2023/05/02 13:26:05;;;;;;;2.17;1.70;;;;;;;;;;5071020;28;20208;-85
2023/05/02 13:28:34;;;;;;;7.53;3.27;;;;;;;;;;5071047;28;20214;-84
2023/05/02 13:31:03;;;;;;;1.50;1.40;;;;;;;;;;5071051;28;20210;-84
2023/05/02 13:33:32;;;;;;;4.07;2.17;;;;;;;;;;5070662;28;20198;-84
2023/05/02 13:36:00;;;;;;;4.30;2.07;;;;;;;;;;5071625;28;20219;-85
2023/05/02 13:38:29;;;;;;;1.57;1.27;;;;;;;;;;5074963;28;20201;-84
2023/05/02 13:40:57;;;;;;;1.20;1.17;;;;;;;;;;5075026;28;20279;-84
2023/05/02 13:43:27;;;;;;;1.30;1.20;;;;;;;;;;5075000;28;20203;-84
2023/05/02 13:45:56;;;;;;;3.40;1.87;;;;;;;;;;5075088;28;20223;-85
2023/05/02 13:48:25;;;;;;;1.30;1.30;;;;;;;;;;5075402;28;20198;-82
2023/05/02 13:50:53;;;;;;;1.30;0.90;;;;;;;;;;5075110;28;20207;-84
2023/05/02 13:53:22;;;;;;;4.43;2.37;;;;;;;;;;5075299;28;20245;-85
2023/05/02 13:55:50;;;;;;;1.70;1.60;;;;;;;;;;5074636;28;20247;-85
2023/05/02 13:58:19;;;;;;;1.77;1.60;;;;;;;;;;5074761;28;20260;-85
2023/05/02 14:00:49;;;;;;;2.23;1.50;;;;;;;;;;5075319;28;20199;-84
2023/05/02 14:03:18;;;;;;;1.50;1.40;;;;;;;;;;5074783;28;20253;-84
2023/05/02 14:05:46;;;;;;;1.57;1.23;;;;;;;;;;5074439;28;20296;-85
2023/05/02 14:08:17;;;;;;;1.83;1.60;;;;;;;;;;5075021;28;20198;-85
2023/05/02 14:10:45;;;;;;;2.70;1.00;;;;;;;;;;5074954;28;20199;-86
2023/05/02 14:13:14;;;;;;;2.70;1.37;;;;;;;;;;5074629;28;20266;-85
2023/05/02 14:15:42;;;;;;;3.10;1.40;;;;;;;;;;5074896;28;20247;-85
2023/05/02 14:18:12;;;;;;;3.37;1.40;;;;;;;;;;5074411;28;20203;-83
2023/05/02 14:20:41;;;;;;;1.00;1.00;;;;;;;;;;5074544;28;20200;-84
2023/05/02 14:23:10;;;;;;;1.90;1.33;;;;;;;;;;5075011;28;20196;-84
2023/05/02 14:25:38;;;;;;;2.40;1.60;;;;;;;;;;5074287;28;20192;-84
2023/05/02 14:28:06;;;;;;;4.77;1.53;;;;;;;;;;5074075;28;20216;-84
2023/05/02 14:30:35;;;;;;;1.23;1.23;;;;;;;;;;5074670;28;20216;-84
2023/05/02 14:33:04;;;;;;;1.57;1.47;;;;;;;;;;5074611;28;20250;-84
2023/05/02 14:35:34;;;;;;;1.50;1.40;;;;;;;;;;5074223;28;20250;-84
2023/05/02 14:38:02;;;;;;;1.77;1.30;;;;;;;;;;5074073;28;20199;-83
2023/05/02 14:40:31;;;;;;;1.73;1.40;;;;;;;;;;5074324;28;20216;-84
2023/05/02 14:43:00;;;;;;;1.60;1.50;;;;;;;;;;5074505;28;20208;-86
2023/05/02 14:45:29;;;;;;;1.00;1.00;;;;;;;;;;5074372;28;20288;-86
2023/05/02 14:47:58;;;;;;;2.77;1.30;;;;;;;;;;5073286;28;20217;-86
2023/05/02 14:50:26;;;;;;;1.20;1.10;;;;;;;;;;5073871;28;20207;-84
2023/05/02 14:52:56;;;;;;;1.30;1.20;;;;;;;;;;5073993;28;20216;-85
2023/05/02 14:55:24;;;;;;;3.20;1.77;;;;;;;;;;5073847;28;20278;-85
2023/05/02 14:57:53;;;;;;;1.60;1.27;;;;;;;;;;5073837;28;20204;-85
2023/05/02 15:00:25;;;;;;;1.57;1.43;;;;;;;;;;5073749;28;20208;-85